createdAt,value
2022-11-17T00:20:22.653Z,11.2
2022-11-17T00:50:23.985Z,10.7
2022-11-17T01:00:24.751Z,10.7
2022-11-17T01:10:25.018Z,10.7
2022-11-17T01:20:26.061Z,10.8
2022-11-17T01:30:26.739Z,10.8
2022-11-17T01:50:27.668Z,10.4
2022-11-17T02:00:28.281Z,10.3
2022-11-17T02:10:28.940Z,10.2
2022-11-17T02:30:29.985Z,10.2
2022-11-17T02:40:30.814Z,10.2
2022-11-17T03:20:31.455Z,10.1
2022-11-17T03:30:36.235Z,10.1
2022-11-17T03:40:32.199Z,10
2022-11-17T04:00:33.103Z,10
2022-11-17T04:20:33.517Z,10
2022-11-17T04:30:33.803Z,9.9
2022-11-17T04:40:34.654Z,10
2022-11-17T04:50:35.632Z,10.1
2022-11-17T05:00:35.933Z,10.2
2022-11-17T05:10:36.189Z,10.3
2022-11-17T05:20:36.393Z,10.3
2022-11-17T05:30:37.158Z,10.2
2022-11-17T05:40:38.113Z,10.2
2022-11-17T05:50:38.181Z,10.3
2022-11-17T06:00:38.590Z,10.5
2022-11-17T06:10:38.622Z,10.4
2022-11-17T06:20:38.757Z,10.3
2022-11-17T06:30:39.510Z,10.2
2022-11-17T06:40:40.400Z,10.2
2022-11-17T07:40:43.441Z,10.3
2022-11-17T07:50:43.670Z,10.4
2022-11-17T08:00:44.027Z,10.5
2022-11-17T08:10:44.724Z,10.6
2022-11-17T08:20:44.783Z,10.6
2022-11-17T08:30:45.530Z,10.4
2022-11-17T08:40:45.811Z,10.3
2022-11-17T09:00:47.857Z,10
2022-11-17T09:10:48.194Z,10
2022-11-17T09:20:48.998Z,10.2
2022-11-17T09:30:49.873Z,10.2
2022-11-17T09:40:50.019Z,10.3
2022-11-17T09:50:50.239Z,10.4
2022-11-17T10:00:50.441Z,10.6
2022-11-17T10:10:51.397Z,10.7
2022-11-17T10:20:51.547Z,10.8
2022-11-17T10:30:51.694Z,11
2022-11-17T10:50:52.414Z,11.3
2022-11-17T11:00:53.037Z,11.4
2022-11-17T11:20:54.444Z,11.8
2022-11-17T11:30:54.737Z,11.9
2022-11-17T11:40:55.248Z,12.1
2022-11-17T11:50:55.684Z,12
2022-11-17T12:00:56.160Z,12.3
2022-11-17T12:10:56.597Z,12
2022-11-17T12:20:57.089Z,12
2022-11-17T12:30:58.044Z,12.1
2022-11-17T12:40:58.214Z,12.1
2022-11-17T12:51:03.464Z,12
2022-11-17T13:31:00.269Z,11.7
2022-11-17T13:41:00.644Z,11.7
2022-11-17T14:11:02.011Z,11.5
2022-11-17T14:21:02.518Z,11.4
2022-11-17T14:31:03.375Z,11.5
2022-11-17T14:41:03.705Z,11.5
2022-11-17T15:41:07.088Z,11.1
2022-11-17T16:01:07.997Z,11.3
2022-11-17T16:11:08.969Z,11.2
2022-11-17T16:41:11.014Z,11.2
2022-11-17T16:51:11.203Z,11.2
2022-11-17T17:01:12.497Z,11.1
2022-11-17T17:41:14.544Z,10.6
2022-11-17T18:01:15.918Z,10.5
2022-11-17T18:11:16.703Z,10.4
2022-11-17T18:51:19.752Z,9.8
2022-11-17T19:01:18.023Z,9.9
2022-11-17T19:11:18.870Z,9.7
2022-11-17T19:41:26.383Z,9.6
2022-11-17T19:51:32.498Z,9.6
2022-11-17T20:01:38.104Z,9.6
2022-11-17T20:11:38.765Z,9.5
2022-11-17T20:21:38.884Z,9.5
2022-11-17T20:31:39.030Z,9.6
2022-11-17T20:41:39.961Z,9.5
2022-11-17T21:11:41.578Z,9.3
2022-11-17T22:31:45.211Z,8.6
2022-11-17T22:41:45.276Z,8.7
2022-11-17T22:51:45.795Z,8.7
2022-11-17T23:01:46.087Z,8.7
2022-11-17T23:11:47.021Z,8.5
2022-11-17T23:21:47.677Z,8.5
2022-11-17T23:31:48.334Z,8.5
2022-11-17T23:41:48.627Z,8.5
2022-11-17T23:51:48.923Z,8.5
